createdAt,value
2022-08-24T00:01:37.669Z,95989.44
2022-08-24T00:06:39.767Z,96009.97
2022-08-24T00:11:42.156Z,96009.16
2022-08-24T00:16:44.515Z,96007.47
2022-08-24T00:21:46.824Z,96000.03
2022-08-24T00:26:49.046Z,96013.81
2022-08-24T00:31:51.307Z,96001.03
2022-08-24T00:36:54.229Z,96013.41
2022-08-24T00:41:56.347Z,96009.09
2022-08-24T00:47:17.095Z,96029.91
2022-08-24T00:52:25.875Z,96034.00
2022-08-24T00:57:34.154Z,96027.69
2022-08-24T01:02:42.387Z,96035.53
2022-08-24T01:07:45.501Z,96052.94
2022-08-24T01:12:59.923Z,96065.81
2022-08-24T01:18:21.379Z,96074.53
2022-08-24T01:23:45.666Z,96077.50
2022-08-24T01:28:51.902Z,96095.38
2022-08-24T01:33:55.528Z,96080.56
2022-08-24T01:39:04.253Z,96109.03
2022-08-24T01:44:07.216Z,96100.94
2022-08-24T01:49:10.482Z,96108.88
2022-08-24T01:54:14.378Z,96099.69
2022-08-24T01:59:17.739Z,96102.75
2022-08-24T02:04:20.714Z,96119.78
2022-08-24T02:09:23.404Z,96108.88
2022-08-24T02:14:33.013Z,96109.44
2022-08-24T02:19:38.328Z,96118.09
2022-08-24T02:24:41.654Z,96122.03
2022-08-24T02:29:44.469Z,96114.47
2022-08-24T02:34:46.913Z,96107.75
2022-08-24T02:39:49.813Z,96116.03
2022-08-24T02:44:55.421Z,96098.94
2022-08-24T02:49:57.895Z,96114.41
2022-08-24T02:55:00.767Z,96103.03
2022-08-24T03:00:10.066Z,96107.75
2022-08-24T03:05:15.712Z,96091.00
2022-08-24T03:10:18.489Z,96102.47
2022-08-24T03:15:24.651Z,96093.94
2022-08-24T03:20:27.411Z,96088.78
2022-08-24T03:25:33.836Z,96096.47
2022-08-24T03:30:36.142Z,96082.09
2022-08-24T03:35:39.304Z,96082.25
2022-08-24T03:40:42.293Z,96083.47
2022-08-24T03:45:45.417Z,96078.75
2022-08-24T03:50:47.850Z,96083.25
2022-08-24T03:55:50.297Z,96086.56
2022-08-24T04:00:52.756Z,96089.91
2022-08-24T04:05:55.120Z,96091.84
2022-08-24T04:10:58.900Z,96090.25
2022-08-24T04:16:06.841Z,96094.66
2022-08-24T04:21:21.360Z,96091.69
2022-08-24T04:26:44.780Z,96092.94
2022-08-24T04:31:51.544Z,96090.00
2022-08-24T04:36:53.973Z,96093.38
2022-08-24T04:41:57.477Z,96094.22
2022-08-24T04:47:08.604Z,96117.50
2022-08-24T04:52:12.622Z,96102.03
2022-08-24T04:57:18.304Z,96100.88
2022-08-24T05:02:22.351Z,96101.06
2022-08-24T05:07:26.593Z,96103.25
2022-08-24T05:12:29.090Z,96094.09
2022-08-24T05:17:35.571Z,96093.41
2022-08-24T05:22:38.150Z,96119.44
2022-08-24T05:27:40.572Z,96117.81
2022-08-24T05:32:48.101Z,96121.78
2022-08-24T05:37:50.722Z,96126.09
2022-08-24T05:42:54.390Z,96125.72
2022-08-24T05:47:57.510Z,96105.13
2022-08-24T05:53:18.309Z,96107.28
2022-08-24T05:58:22.966Z,96108.66
2022-08-24T06:03:36.286Z,96108.03
2022-08-24T06:08:42.766Z,96124.06
2022-08-24T06:13:46.493Z,96110.59
2022-08-24T06:18:56.908Z,96129.19
2022-08-24T06:24:01.981Z,96115.88
2022-08-24T06:29:05.112Z,96130.97
2022-08-24T06:34:32.528Z,96121.31
2022-08-24T06:39:36.079Z,96130.59
2022-08-24T06:44:39.640Z,96137.91
2022-08-24T06:49:50.805Z,96134.28
2022-08-24T06:54:53.472Z,96140.19
2022-08-24T06:59:56.149Z,96146.94
2022-08-24T07:04:58.868Z,96147.09
2022-08-24T07:10:34.681Z,96148.69
2022-08-24T07:15:37.283Z,96141.69
2022-08-24T07:20:47.768Z,96165.78
2022-08-24T07:26:18.828Z,96169.06
2022-08-24T07:31:25.232Z,96168.31
2022-08-24T07:36:44.740Z,96167.31
2022-08-24T07:47:34.745Z,96161.53
2022-08-24T07:52:33.553Z,96163.63
2022-08-24T07:57:38.701Z,96184.78
2022-08-24T08:02:46.622Z,96191.44
2022-08-24T08:07:52.413Z,96186.31
2022-08-24T08:12:56.050Z,96187.16
2022-08-24T08:17:59.064Z,96173.28
2022-08-24T08:23:19.791Z,96194.53
2022-08-24T08:28:36.234Z,96191.56
2022-08-24T08:33:40.802Z,96185.19
2022-08-24T08:38:44.517Z,96171.19
2022-08-24T08:44:06.092Z,96178.22
2022-08-24T08:49:45.217Z,96194.38
2022-08-24T08:55:18.529Z,96193.59
2022-08-24T09:00:56.606Z,96192.84
2022-08-24T09:06:36.863Z,96173.16
2022-08-24T09:11:50.579Z,96191.84
2022-08-24T09:17:12.969Z,96196.22
2022-08-24T09:22:18.298Z,96185.25
2022-08-24T09:27:38.401Z,96171.06
2022-08-24T09:32:59.200Z,96171.75
2022-08-24T09:38:36.011Z,96153.88
2022-08-24T09:44:26.597Z,96164.75
2022-08-24T09:50:05.130Z,96135.03
2022-08-24T09:55:16.873Z,96161.25
2022-08-24T10:00:28.038Z,96136.56
2022-08-24T10:05:56.639Z,96140.22
2022-08-24T10:11:34.388Z,96146.56
2022-08-24T10:17:14.325Z,96141.69
2022-08-24T10:22:16.601Z,96139.88
2022-08-24T10:27:53.934Z,96143.19
2022-08-24T10:33:10.626Z,96132.34
2022-08-24T10:38:50.895Z,96131.53
2022-08-24T10:44:37.065Z,96131.88
2022-08-24T10:50:06.671Z,96119.34
2022-08-24T10:55:27.142Z,96116.19
2022-08-24T11:00:30.717Z,96107.50
2022-08-24T11:05:50.188Z,96115.19
2022-08-24T11:11:04.978Z,96138.34
2022-08-24T11:16:07.681Z,96132.81
2022-08-24T11:21:10.217Z,96115.75
2022-08-24T11:26:21.675Z,96135.13
2022-08-24T11:31:41.225Z,96126.94
2022-08-24T11:36:43.629Z,96136.09
2022-08-24T11:41:56.293Z,96114.72
2022-08-24T11:47:06.149Z,96128.78
2022-08-24T11:52:18.756Z,96112.78
2022-08-24T11:57:26.808Z,96117.22
2022-08-24T12:02:39.519Z,96117.00
2022-08-24T12:07:51.001Z,96113.44
2022-08-24T12:13:26.339Z,96106.22
2022-08-24T12:19:06.152Z,96124.50
2022-08-24T12:24:29.598Z,96127.06
2022-08-24T12:29:53.907Z,96149.09
2022-08-24T12:35:02.964Z,96147.00
2022-08-24T12:40:26.393Z,96151.44
2022-08-24T12:45:30.359Z,96158.94
2022-08-24T12:50:53.926Z,96151.91
2022-08-24T12:56:06.459Z,96147.06
2022-08-24T13:01:13.625Z,96129.03
2022-08-24T13:06:49.325Z,96137.75
2022-08-24T13:11:52.336Z,96117.31
2022-08-24T13:16:57.292Z,96120.88
2022-08-24T13:22:38.507Z,96088.88
2022-08-24T13:27:41.804Z,96088.59
2022-08-24T13:32:49.714Z,96068.81
2022-08-24T13:38:39.842Z,96051.31
2022-08-24T13:43:44.967Z,96052.44
2022-08-24T13:49:02.070Z,96046.50
2022-08-24T13:54:45.435Z,96045.13
2022-08-24T14:00:01.961Z,96040.81
2022-08-24T14:05:28.064Z,96033.25
2022-08-24T14:10:59.718Z,96037.94
2022-08-24T14:16:26.508Z,96018.78
2022-08-24T14:21:46.834Z,96019.34
2022-08-24T14:27:00.548Z,96027.25
2022-08-24T14:32:12.553Z,96020.56
2022-08-24T14:37:16.569Z,96031.63
2022-08-24T14:42:59.614Z,96009.63
2022-08-24T14:48:19.826Z,96015.19
2022-08-24T14:53:40.294Z,96027.75
2022-08-24T14:59:14.802Z,96030.69
2022-08-24T15:04:42.881Z,96028.16
2022-08-24T15:09:45.972Z,96019.22
2022-08-24T15:14:53.650Z,96018.25
2022-08-24T15:20:20.204Z,96020.59
2022-08-24T15:25:43.010Z,96025.84
2022-08-24T15:30:56.092Z,95993.81
2022-08-24T15:36:13.351Z,96022.53
2022-08-24T15:41:30.755Z,96021.53
2022-08-24T15:46:37.399Z,96005.44
2022-08-24T15:52:06.520Z,96019.88
2022-08-24T15:57:31.088Z,96027.44
2022-08-24T16:02:37.081Z,96030.59
2022-08-24T16:08:02.794Z,96034.84
2022-08-24T16:13:28.573Z,96035.44
2022-08-24T16:18:55.545Z,96047.28
2022-08-24T16:24:20.801Z,96050.47
2022-08-24T16:29:35.313Z,96058.25
2022-08-24T16:34:40.765Z,96061.25
2022-08-24T16:39:43.595Z,96075.41
2022-08-24T16:44:45.837Z,96058.06
2022-08-24T16:49:48.950Z,96080.78
2022-08-24T16:54:51.538Z,96080.13
2022-08-24T16:59:53.921Z,96086.16
2022-08-24T17:04:56.640Z,96069.00
2022-08-24T17:10:03.001Z,96083.50
2022-08-24T17:15:07.126Z,96089.16
2022-08-24T17:20:11.359Z,96097.75
2022-08-24T17:25:13.539Z,96089.44
2022-08-24T17:30:20.414Z,96094.16
2022-08-24T17:35:24.618Z,96098.59
2022-08-24T17:40:30.276Z,96096.03
2022-08-24T17:45:32.613Z,96091.34
2022-08-24T17:50:35.977Z,96115.31
2022-08-24T17:55:38.364Z,96113.63
2022-08-24T18:00:40.588Z,96133.47
2022-08-24T18:05:42.942Z,96123.94
2022-08-24T18:10:45.544Z,96131.09
2022-08-24T18:15:50.188Z,96139.06
2022-08-24T18:20:52.618Z,96150.28
2022-08-24T18:25:54.787Z,96151.53
2022-08-24T18:30:57.029Z,96163.66
2022-08-24T18:35:59.231Z,96155.00
2022-08-24T18:41:02.084Z,96160.75
2022-08-24T18:46:05.540Z,96157.31
2022-08-24T18:51:07.976Z,96153.63
2022-08-24T18:56:12.653Z,96145.44
2022-08-24T19:01:15.149Z,96159.38
2022-08-24T19:06:17.968Z,96156.53
2022-08-24T19:11:24.206Z,96157.97
2022-08-24T19:16:26.642Z,96145.03
2022-08-24T19:21:33.876Z,96142.50
2022-08-24T19:26:37.023Z,96141.31
2022-08-24T19:31:39.292Z,96134.88
2022-08-24T19:36:42.375Z,96134.72
2022-08-24T19:41:48.885Z,96139.88
2022-08-24T19:46:51.794Z,96149.91
2022-08-24T19:51:54.946Z,96171.41
2022-08-24T19:56:59.952Z,96174.06
2022-08-24T20:02:02.361Z,96163.25
2022-08-24T20:07:04.731Z,96151.78
2022-08-24T20:12:07.200Z,96160.53
2022-08-24T20:17:09.507Z,96172.44
2022-08-24T20:22:20.440Z,96163.53
2022-08-24T20:27:26.955Z,96157.88
2022-08-24T20:32:29.739Z,96151.91
2022-08-24T20:37:33.701Z,96161.97
2022-08-24T20:42:35.780Z,96167.81
2022-08-24T20:47:52.218Z,96163.63
2022-08-24T20:52:55.841Z,96166.16
2022-08-24T20:58:03.746Z,96159.72
2022-08-24T21:03:05.972Z,96153.84
2022-08-24T21:08:08.487Z,96138.63
2022-08-24T21:13:11.100Z,96144.13
2022-08-24T21:18:13.525Z,96133.50
2022-08-24T21:23:15.751Z,96126.34
2022-08-24T21:28:20.217Z,96096.56
2022-08-24T21:33:40.806Z,96095.41
2022-08-24T21:38:45.239Z,96115.94
2022-08-24T21:43:47.671Z,96097.38
2022-08-24T21:48:49.813Z,96107.72
2022-08-24T21:53:52.196Z,96117.84
2022-08-24T21:59:00.717Z,96099.81
2022-08-24T22:04:03.004Z,96095.50
2022-08-24T22:09:05.832Z,96087.00
2022-08-24T22:14:08.191Z,96082.25
2022-08-24T22:19:11.562Z,96079.84
2022-08-24T22:24:13.749Z,96077.31
2022-08-24T22:29:16.148Z,96072.47
2022-08-24T22:34:20.840Z,96064.28
2022-08-24T22:39:23.470Z,96044.16
2022-08-24T22:44:27.910Z,96033.28
2022-08-24T22:49:33.047Z,96041.16
2022-08-24T22:54:35.542Z,96039.53
2022-08-24T22:59:41.936Z,96038.84
2022-08-24T23:04:47.231Z,96021.44
2022-08-24T23:09:49.829Z,96008.41
2022-08-24T23:14:52.927Z,96022.81
2022-08-24T23:20:01.263Z,96003.13
2022-08-24T23:25:05.315Z,96022.66
2022-08-24T23:30:12.553Z,96021.81
2022-08-24T23:35:14.797Z,96000.78
2022-08-24T23:40:19.097Z,96002.16
2022-08-24T23:45:28.416Z,96018.94
2022-08-24T23:50:33.788Z,96014.69
2022-08-24T23:55:36.767Z,95999.78
